Meteo Giornale » Osservazioni meteo Germania » Friedrichshafen

ore: 01:50 - Osservazioni Meteo Friedrichshafen
Lat. 47° 40' N Lon. 9° 31' E Alt. 416 metri s.l.m.

coperto Europe/Berlin

15 °C

Coperto

Temp. 24 Ore

15 °C

25 °C

Nord

3.7 Km/h

Dew point 14 °C

Umidità 93 %

Visibilità  10 Km

Il sole sorge alle ore 05:22

Il sole tramonta alle ore 21:26

Data e Ora Cielo e Fenomeni T °C DP °C Um. % Pres. hPa Vis. km Vento km/h
Oggi h: 01:50 coperto Coperto 15 14 93 1020 10 N 3.7
Oggi h: 01:20 coperto Coperto 15 14 93 1020 10 N 3.7
Oggi h: 00:50 coperto Coperto 16 14 87 1020 10 SO 14.8
Oggi h: 00:20 coperto Coperto 16 14 87 1020 10 SO 20.3
Ieri h: 23:50 coperto Coperto 16 15 93 1019 10 O 18.5
Ieri h: 22:50 coperto Coperto 17 16 93 1018 10 N/NE 13
Ieri h: 22:20 coperto Coperto 17 16 93 1016 10 N 13
Ieri h: 21:50 coperto Coperto 17 17 100 1016 10 N/NO 11.1
Ieri h: 21:20 molto_nuvoloso Molto Nuvoloso 16 16 100 1015 10 N/NO 11.1
Ieri h: 20:50 sereno Sereno 15 15 100 1014 10 N 11.1
Ieri h: 20:20 sereno Sereno 20 17 82 1015 10 SE 16.7
Ieri h: 19:50 molto_nuvoloso Molto Nuvoloso 23 17 68 1014 10 N 11.1
Ieri h: 19:20 molto_nuvoloso Molto Nuvoloso 24 17 64 1015 10 N 9.3
Ieri h: 18:50 poco_nuvoloso Poco Nuvoloso 24 17 64 1015 10 N/NE 11.1
Ieri h: 18:20 poco_nuvoloso Poco Nuvoloso 24 17 64 1015 10 N/NE 13
Ieri h: 17:50 poco_nuvoloso Poco Nuvoloso 25 17 61 1015 10 N/NE 11.1
Ieri h: 17:20 nuvoloso Nuvoloso 25 17 61 1015 10 N/NE 16.7
Ieri h: 16:50 poco_nuvoloso Poco Nuvoloso 25 16 57 1016 10 N/NE 13
Ieri h: 16:20 poco_nuvoloso Poco Nuvoloso 25 16 57 1016 10 N 14.8
Ieri h: 15:50 poco_nuvoloso Poco Nuvoloso 25 16 57 1016 10 N 18.5
Ieri h: 15:20 nuvoloso Nuvoloso 25 16 57 1017 10 N 13
Ieri h: 14:50 molto_nuvoloso Molto Nuvoloso 25 16 57 1016 10 N/NE 11.1
Ieri h: 14:20 molto_nuvoloso Molto Nuvoloso 24 15 57 1017 10 N/NE 13
Ieri h: 13:50 molto_nuvoloso Molto Nuvoloso 24 16 60 1017 10 N 13
Ieri h: 13:20 nuvoloso Nuvoloso 24 15 57 1017 10 N 14.8
Ieri h: 12:50 molto_nuvoloso Molto Nuvoloso 24 17 64 1017 10 N/NE 11.1
Ieri h: 12:20 poco_nuvoloso Poco Nuvoloso 23 16 64 1017 10 N/NO 9.3
Ieri h: 11:50 poco_nuvoloso Poco Nuvoloso 22 16 68 1017 10 N 11.1
Ieri h: 11:20 poco_nuvoloso Poco Nuvoloso 21 16 73 1018 10 NE 11.1
Ieri h: 10:50 poco_nuvoloso Poco Nuvoloso 20 16 77 1018 10 N/NE 13
Ieri h: 10:20 poco_nuvoloso Poco Nuvoloso 20 17 82 1018 10 NE 9.3
Ieri h: 09:50 poco_nuvoloso Poco Nuvoloso 20 17 82 1018 10 NE 9.3
Ieri h: 09:20 poco_nuvoloso Poco Nuvoloso 18 16 88 1018 10 NE 7.4
Ieri h: 08:50 poco_nuvoloso Poco Nuvoloso 17 16 93 1018 10 N 3.7
Ieri h: 08:20 poco_nuvoloso Poco Nuvoloso 17 16 93 1018 10 N 3.7
Ieri h: 07:50 nuvoloso Nuvoloso 17 16 93 1018 10 N 3.7
Ieri h: 07:20 sereno Sereno 17 16 93 1017 10 N 5.5
Ieri h: 06:50 molto_nuvoloso Molto Nuvoloso 16 16 100 1017 4 N 5.5
Ieri h: 06:20 molto_nuvoloso Molto Nuvoloso 16 16 100 1017 6 N 3.7
Ieri h: 05:50 coperto Coperto 16 16 100 1017 5 N 3.7
Ieri h: 05:20 molto_nuvoloso Molto Nuvoloso 16 16 100 1017 5 N 3.7
Ieri h: 04:50 coperto Coperto 16 16 100 1017 6 N 3.7
Ieri h: 04:20 coperto Coperto 17 16 93 1017 9 N 0
Ieri h: 03:50 coperto Coperto 17 16 93 1018 9 N 5.5
Ieri h: 03:20 coperto Coperto 17 16 93 1018 7 N 5.5
Ieri h: 02:50 coperto Coperto 17 16 93 1017 10 N 3.7